Bay Bridge — 3FCS5 — position and weather

sailwx.info

Track history (hours):
 
Tides and Currents Weather Stations Pressure Air Temp Water Temp Dewpoint Dewpoint Depression Visibility Wind Speed Wind Dir Waves Ship Positions

Bay Bridge

Last reported at 2017-Jun-26 19:00 UTC. Time now 2017-Jun-26 19:07 UTC.
Position N 37°16' W 122°40'.

Length 267 m; draft 10.7 m.

Type: Ship (hazmat cat A). MMSI: 354120000.

Date/timePositionNaut miles runAvg speedWind from/ knotsBaromVisibWave heightAir tempDewpointWater temp
2017-Jun-26 19:00N 37°16' W 122°40'2 3.4
2017-Jun-26 18:28N 37°17' W 122°41'0 0.3
2017-Jun-26 17:58N 37°17' W 122°41'0 0.4
2017-Jun-26 17:28N 37°17' W 122°42'0 0.4
2017-Jun-26 16:58N 37°17' W 122°42'0 0.5
2017-Jun-26 16:28N 37°16' W 122°42'0 1.0
2017-Jun-26 15:58N 37°16' W 122°41'2 4.4
2017-Jun-26 15:30N 37°16' W 122°39'2 3.9
2017-Jun-26 15:00N 37°15' W 122°37'0 0.3
2017-Jun-26 14:30N 37°15' W 122°37'0 0.3
2017-Jun-26 13:30N 37°15' W 122°37'0 0.4
2017-Jun-26 12:54N 37°16' W 122°37'0 0.4
2017-Jun-26 12:30N 37°16' W 122°37'0 0.6
2017-Jun-26 12:00N 37°16' W 122°37'0 0.3
2017-Jun-26 11:24N 37°16' W 122°37'0 0.4
2017-Jun-26 11:00N 37°16' W 122°37'0 0.4
2017-Jun-26 10:30N 37°16' W 122°37'0 0.3
2017-Jun-26 10:00N 37°16' W 122°37'0 0.2
2017-Jun-26 09:30N 37°17' W 122°38'0 0.3
2017-Jun-26 09:00N 37°17' W 122°38'0 0.3
2017-Jun-26 08:30N 37°16' W 122°38'0 0.5
2017-Jun-26 08:00N 37°16' W 122°38'0 0.8
2017-Jun-26 07:30N 37°16' W 122°39'0 0.4
2017-Jun-26 07:00N 37°16' W 122°39'0 0.4
2017-Jun-26 06:27N 37°16' W 122°39'0 0.3
2017-Jun-26 06:00N 37°16' W 122°39'0 0.1
2017-Jun-26 05:29N 37°16' W 122°39'0 0.1
2017-Jun-26 05:00N 37°16' W 122°39'0 0.1
2017-Jun-26 04:30N 37°16' W 122°39'0 0.1
2017-Jun-26 04:00N 37°16' W 122°39'0 0.2
2017-Jun-26 03:30N 37°16' W 122°39'0 0.3
2017-Jun-26 02:59N 37°16' W 122°39'0 0.3
2017-Jun-26 02:29N 37°16' W 122°39'0 0.6
2017-Jun-26 02:00N 37°16' W 122°40'0 0.4
2017-Jun-26 01:30N 37°16' W 122°40'0 0.4
2017-Jun-26 00:59N 37°16' W 122°40'0 0.3
2017-Jun-26 00:30N 37°16' W 122°40'0 0.1
2017-Jun-26 00:00N 37°16' W 122°40'1 1.2
2017-Jun-25 23:30N 37°16' W 122°40'4 8.3
2017-Jun-25 23:00N 37°11' W 122°40'611.2
2017-Jun-25 22:30N 37°06' W 122°39'611.2
2017-Jun-25 22:00N 37°01' W 122°36'611.3
2017-Jun-25 21:30N 36°56' W 122°34'611.3
2017-Jun-25 21:00N 36°50' W 122°31'611.1
2017-Jun-25 20:30N 36°45' W 122°29'611.1
2017-Jun-25 20:00N 36°40' W 122°26'611.0
2017-Jun-25 19:30N 36°35' W 122°23'510.8
2017-Jun-25 19:00N 36°30' W 122°21'510.8
2017-Jun-25 18:30N 36°25' W 122°18'510.5
2017-Jun-25 18:00N 36°20' W 122°16'611.1
2017-Jun-25 17:30N 36°15' W 122°12'510.5
2017-Jun-25 17:00N 36°11' W 122°09'510.6
2017-Jun-25 16:30N 36°06' W 122°06'510.8
2017-Jun-25 16:00N 36°01' W 122°03'510.6
2017-Jun-25 15:30N 35°57' W 121°59'510.5
2017-Jun-25 15:00N 35°52' W 121°56'1010.3
2017-Jun-25 14:00N 35°44' W 121°49'510.1
2017-Jun-25 13:30N 35°39' W 121°46'510.0
2017-Jun-25 13:00N 35°35' W 121°43'5 9.6
2017-Jun-25 12:30N 35°31' W 121°40'5 9.4
2017-Jun-25 12:00N 35°27' W 121°37'510.8
2017-Jun-25 11:30N 35°22' W 121°34'510.9
2017-Jun-25 11:00N 35°17' W 121°30'510.9
2017-Jun-25 10:30N 35°13' W 121°27'611.1
2017-Jun-25 10:00N 35°08' W 121°23'611.2
2017-Jun-25 09:30N 35°03' W 121°20'611.1
2017-Jun-25 09:00N 34°58' W 121°17'611.2
2017-Jun-25 08:30N 34°53' W 121°13'511.1
2017-Jun-25 08:00N 34°49' W 121°10'510.9
2017-Jun-25 07:30N 34°44' W 121°06'611.0
2017-Jun-25 07:00N 34°39' W 121°03'611.0
2017-Jun-25 06:30N 34°35' W 120°59'510.8
2017-Jun-25 06:00N 34°30' W 120°56'5 9.3
2017-Jun-25 05:27N 34°26' W 120°52'6 9.1
2017-Jun-25 04:44N 34°25' W 120°44'2 8.5
2017-Jun-25 04:30N 34°24' W 120°42'5 8.5
2017-Jun-25 03:58N 34°23' W 120°36'4 8.7
2017-Jun-25 03:30N 34°22' W 120°32'4 8.8
2017-Jun-25 03:00N 34°21' W 120°27'4 8.2
2017-Jun-25 02:30N 34°19' W 120°22'4 8.8
2017-Jun-25 02:00N 34°18' W 120°17'5 8.6
2017-Jun-25 01:26N 34°17' W 120°11'4 8.3
2017-Jun-25 00:58N 34°16' W 120°07'4 8.3
2017-Jun-25 00:27N 34°15' W 120°02'4 8.3
2017-Jun-24 23:58N 34°14' W 119°57'4 8.2
2017-Jun-24 23:30N 34°13' W 119°52'5 9.0
2017-Jun-24 23:00N 34°12' W 119°47'4 8.8
2017-Jun-24 22:30N 34°10' W 119°42'4 8.8
2017-Jun-24 22:00N 34°09' W 119°37'5 9.2
2017-Jun-24 21:30N 34°08' W 119°31'4 8.5
2017-Jun-24 21:00N 34°07' W 119°27'4 8.3
2017-Jun-24 20:30N 34°06' W 119°22'5 9.3
2017-Jun-24 20:00N 34°04' W 119°16'5 9.2
2017-Jun-24 19:30N 34°03' W 119°11'5 9.5
2017-Jun-24 19:00N 34°00' W 119°06'5 9.4
2017-Jun-24 18:30N 33°58' W 119°02'5 9.4
2017-Jun-24 18:00N 33°55' W 118°57'5 9.7
2017-Jun-24 17:30N 33°53' W 118°52'5 9.9
2017-Jun-24 17:00N 33°51' W 118°46'510.0
2017-Jun-24 16:30N 33°48' W 118°41'510.0
2017-Jun-24 16:00N 33°46' W 118°36'5 9.7
2017-Jun-24 15:30N 33°43' W 118°31'5 9.4
2017-Jun-24 15:00N 33°41' W 118°26'9 8.8
2017-Jun-24 14:00N 33°38' W 118°16'4 7.5
2017-Jun-24 13:30N 33°40' W 118°12'4 7.6
2017-Jun-24 13:00N 33°44' W 118°12'1 1.5
2017-Jun-24 12:30N 33°45' W 118°12'0 0.0
2017-Jun-24 11:58N 33°45' W 118°12'0 0.0
2017-Jun-24 11:28N 33°45' W 118°12'0 0.0
2017-Jun-24 10:58N 33°45' W 118°12'0 0.0
2017-Jun-24 10:25N 33°45' W 118°12'0 0.0
2017-Jun-24 09:58N 33°45' W 118°12'0 0.1
2017-Jun-24 09:28N 33°45' W 118°12'0 0.0
2017-Jun-24 08:58N 33°45' W 118°12'0 0.1
2017-Jun-24 08:25N 33°45' W 118°12'0 0.1
2017-Jun-24 07:58N 33°45' W 118°12'0 0.1
2017-Jun-24 07:25N 33°45' W 118°12'0 0.0
2017-Jun-24 06:58N 33°45' W 118°12'0 0.0
2017-Jun-24 06:28N 33°45' W 118°12'0 0.0
2017-Jun-24 05:58N 33°45' W 118°12'0 0.0
2017-Jun-24 05:28N 33°45' W 118°12'0 0.1
2017-Jun-24 04:58N 33°45' W 118°12'0 0.0
2017-Jun-24 04:28N 33°45' W 118°12'0 0.1
2017-Jun-24 03:58N 33°45' W 118°12'0 0.0
2017-Jun-24 03:22N 33°45' W 118°12'0 0.0
2017-Jun-24 02:52N 33°45' W 118°12'0 0.0
2017-Jun-24 02:28N 33°45' W 118°12'0 0.1
2017-Jun-24 01:49N 33°45' W 118°12'0 0.1
2017-Jun-24 01:28N 33°45' W 118°12'0 0.0
2017-Jun-24 00:46N 33°45' W 118°12'0 0.0
2017-Jun-24 00:22N 33°45' W 118°12'0 0.0
2017-Jun-23 23:58N 33°45' W 118°12'0 0.0
2017-Jun-23 23:28N 33°45' W 118°12'0 0.0
2017-Jun-23 22:58N 33°45' W 118°12'0 0.0
2017-Jun-23 22:28N 33°45' W 118°12'0 0.1
2017-Jun-23 21:58N 33°45' W 118°12'0 0.1
2017-Jun-23 21:28N 33°45' W 118°12'0 0.1
2017-Jun-23 20:52N 33°45' W 118°12'0 0.1
2017-Jun-23 20:28N 33°45' W 118°12'0 0.0
2017-Jun-23 19:58N 33°45' W 118°12'0 0.1
2017-Jun-23 19:25N 33°45' W 118°12'0 0.1
2017-Jun-23 18:40N 33°45' W 118°12'0 0.0
2017-Jun-23 18:22N 33°45' W 118°12'0 0.1
2017-Jun-23 17:58N 33°45' W 118°12'0 0.0
2017-Jun-23 17:28N 33°45' W 118°12'0 0.1
2017-Jun-23 16:58N 33°45' W 118°12'0 0.0
2017-Jun-23 16:28N 33°45' W 118°12'0 0.1
2017-Jun-23 15:58N 33°45' W 118°12'0 0.0
2017-Jun-23 15:28N 33°45' W 118°12'0 0.0
2017-Jun-23 14:58N 33°45' W 118°12'0 0.1
2017-Jun-23 13:58N 33°45' W 118°12'0 0.1
2017-Jun-23 13:28N 33°45' W 118°12'0 0.1
2017-Jun-23 12:58N 33°45' W 118°12'0 0.1
2017-Jun-23 12:28N 33°45' W 118°12'0 0.0
2017-Jun-23 11:58N 33°45' W 118°12'0 0.1
2017-Jun-23 11:28N 33°45' W 118°12'0 0.0
2017-Jun-23 10:55N 33°45' W 118°12'0 0.1
2017-Jun-23 10:16N 33°45' W 118°12'0 0.0
2017-Jun-23 09:58N 33°45' W 118°12'0 0.1
2017-Jun-23 09:28N 33°45' W 118°12'0 0.0
2017-Jun-23 08:58N 33°45' W 118°12'0 0.0
2017-Jun-23 08:28N 33°45' W 118°12'0 0.0
2017-Jun-23 07:58N 33°45' W 118°12'0 0.1
2017-Jun-23 07:28N 33°45' W 118°12'0 0.0
2017-Jun-23 06:58N 33°45' W 118°12'0 0.1
2017-Jun-23 06:22N 33°45' W 118°12'0 0.1
2017-Jun-23 05:52N 33°45' W 118°12'0 0.0
2017-Jun-23 05:28N 33°45' W 118°12'0 0.0
2017-Jun-23 04:58N 33°45' W 118°12'0 0.0
2017-Jun-23 04:28N 33°45' W 118°12'0 0.0
2017-Jun-23 03:58N 33°45' W 118°12'0 0.0
2017-Jun-23 03:28N 33°45' W 118°12'0 0.1
2017-Jun-23 02:58N 33°45' W 118°12'0 0.0
2017-Jun-23 02:28N 33°45' W 118°12'0 0.0
2017-Jun-23 01:58N 33°45' W 118°12'0 0.0
2017-Jun-23 01:28N 33°45' W 118°12'0 0.0
2017-Jun-23 00:58N 33°45' W 118°12'0 0.0
2017-Jun-23 00:28N 33°45' W 118°12'0 0.0
2017-Jun-22 23:58N 33°45' W 118°12'0 0.1
2017-Jun-22 23:28N 33°45' W 118°12'0 0.1
2017-Jun-22 22:58N 33°45' W 118°12'0 0.0
2017-Jun-22 22:30N 33°45' W 118°12'0 0.0
2017-Jun-22 22:01N 33°45' W 118°12'0 0.0
2017-Jun-22 21:28N 33°45' W 118°12'0 0.0
2017-Jun-22 20:58N 33°45' W 118°12'0 0.1
2017-Jun-22 20:25N 33°45' W 118°12'0 0.0
2017-Jun-22 19:52N 33°45' W 118°12'0 0.1
2017-Jun-22 19:28N 33°45' W 118°12'0 0.0
2017-Jun-22 18:58N 33°45' W 118°12'0 0.0
2017-Jun-22 18:31N 33°45' W 118°12'0 0.1
2017-Jun-22 17:54N 33°45' W 118°12'0 0.0
2017-Jun-22 17:28N 33°45' W 118°12'0 0.1
2017-Jun-22 16:58N 33°45' W 118°12'0 0.0
2017-Jun-22 16:28N 33°45' W 118°12'0 0.1
2017-Jun-22 15:58N 33°45' W 118°12'0 0.0
2017-Jun-22 15:28N 33°45' W 118°12'0 0.0
2017-Jun-22 14:58N 33°45' W 118°12'0 0.0
2017-Jun-22 13:58N 33°45' W 118°12'0 0.0
2017-Jun-22 13:30N 33°45' W 118°12'0 0.0
2017-Jun-22 12:58N 33°45' W 118°12'0 0.1
2017-Jun-22 12:28N 33°45' W 118°12'0 0.1
2017-Jun-22 11:58N 33°45' W 118°12'0 0.1
2017-Jun-22 11:31N 33°45' W 118°12'0 0.0
2017-Jun-22 10:58N 33°45' W 118°12'0 0.0
2017-Jun-22 10:30N 33°45' W 118°12'0 0.0
2017-Jun-22 09:58N 33°45' W 118°12'0 0.0
2017-Jun-22 09:28N 33°45' W 118°12'0 0.1
2017-Jun-22 09:01N 33°45' W 118°12'0 0.1
2017-Jun-22 08:30N 33°45' W 118°12'0 0.0
2017-Jun-22 08:00N 33°45' W 118°12'0 0.0
2017-Jun-22 07:31N 33°45' W 118°12'0 0.0
2017-Jun-22 06:58N 33°45' W 118°12'0 0.1
2017-Jun-22 06:30N 33°45' W 118°12'0 0.0
2017-Jun-22 06:00N 33°45' W 118°12'0 0.1
2017-Jun-22 05:31N 33°45' W 118°12'0 0.0
2017-Jun-22 05:00N 33°45' W 118°12'0 0.1
2017-Jun-22 04:31N 33°45' W 118°12'0 0.1
2017-Jun-22 04:00N 33°45' W 118°12'0 0.1
2017-Jun-22 03:30N 33°45' W 118°12'0 0.1
2017-Jun-22 03:01N 33°45' W 118°12'0 0.0
2017-Jun-22 02:31N 33°45' W 118°12'0 0.1
2017-Jun-22 02:00N 33°45' W 118°12'0 0.0
2017-Jun-22 01:30N 33°45' W 118°12'0 0.0
2017-Jun-22 01:00N 33°45' W 118°12'0 0.1
2017-Jun-22 00:28N 33°45' W 118°12'0 0.0
2017-Jun-22 00:01N 33°45' W 118°12'0 0.0
2017-Jun-21 23:30N 33°45' W 118°12'0 0.1
2017-Jun-21 23:00N 33°45' W 118°12'0 0.0
2017-Jun-21 22:30N 33°45' W 118°12'0 0.1
2017-Jun-21 22:00N 33°45' W 118°12'1 1.4
2017-Jun-21 21:30N 33°44' W 118°12'3 6.5
2017-Jun-21 21:00N 33°41' W 118°11'4 7.3
2017-Jun-21 20:30N 33°38' W 118°11'4 8.0
2017-Jun-21 20:00N 33°36' W 118°15'510.1
2017-Jun-21 19:30N 33°37' W 118°22'510.7
2017-Jun-21 19:00N 33°39' W 118°27'510.7
2017-Jun-21 18:30N 33°42' W 118°33'510.6
2017-Jun-21 18:00N 33°45' W 118°38'510.8
2017-Jun-21 17:31N 33°47' W 118°44'510.9
2017-Jun-21 17:01N 33°50' W 118°50'510.7
2017-Jun-21 16:31N 33°53' W 118°55'510.9
2017-Jun-21 16:00N 33°55' W 119°01'510.8
2017-Jun-21 15:30N 33°58' W 119°07'510.6
2017-Jun-21 15:00N 34°00' W 119°12'510.5
2017-Jun-21 14:31N 34°03' W 119°18'1110.5
2017-Jun-21 13:30N 34°06' W 119°30'510.4
2017-Jun-21 13:01N 34°07' W 119°36'5 9.9
2017-Jun-21 12:30N 34°08' W 119°42'510.0
2017-Jun-21 12:01N 34°10' W 119°48'510.0
2017-Jun-21 11:30N 34°11' W 119°54'5 9.9
2017-Jun-21 11:00N 34°12' W 119°60'510.0
2017-Jun-21 10:30N 34°14' W 120°05'5 9.9
2017-Jun-21 10:00N 34°15' W 120°11'5 9.9
2017-Jun-21 09:30N 34°16' W 120°17'5 9.9
2017-Jun-21 09:00N 34°18' W 120°23'5 9.8
2017-Jun-21 08:30N 34°19' W 120°28'5 9.9
2017-Jun-21 08:00N 34°20' W 120°34'5 9.9
2017-Jun-21 07:30N 34°22' W 120°40'5 9.9
2017-Jun-21 07:00N 34°23' W 120°46'510.1
2017-Jun-21 06:30N 34°24' W 120°52'4 8.7
2017-Jun-21 05:59N 34°24' W 120°57'4 7.8
2017-Jun-21 05:30N 34°24' W 121°02'4 7.7
2017-Jun-21 05:00N 34°23' W 121°06'1012.9
2017-Jun-21 04:13N 34°23' W 121°19'312.2
2017-Jun-21 03:58N 34°23' W 121°22'810.8
2017-Jun-21 03:15N 34°27' W 121°30'410.8
2017-Jun-21 02:53N 34°29' W 121°34'511.0
2017-Jun-21 02:28N 34°32' W 121°39'511.1
2017-Jun-21 02:00N 34°35' W 121°44'510.9
2017-Jun-21 01:30N 34°38' W 121°49'510.9
2017-Jun-21 01:00N 34°41' W 121°55'510.9
2017-Jun-21 00:30N 34°43' W 122°01'510.8
2017-Jun-21 00:00N 34°46' W 122°06'510.9
2017-Jun-20 23:30N 34°50' W 122°11'510.7
2017-Jun-20 23:00N 34°53' W 122°17'710.8
2017-Jun-20 22:19N 34°57' W 122°24'310.7
2017-Jun-20 22:00N 34°59' W 122°28'510.7
2017-Jun-20 21:30N 35°02' W 122°33'610.8
2017-Jun-20 20:59N 35°05' W 122°39'810.6
2017-Jun-20 20:16N 35°09' W 122°47'410.5
2017-Jun-20 19:55N 35°11' W 122°51'410.7
2017-Jun-20 19:30N 35°13' W 122°55'510.7
2017-Jun-20 19:00N 35°16' W 123°01'511.0
2017-Jun-20 18:30N 35°19' W 123°06'510.7
2017-Jun-20 18:00N 35°22' W 123°12'510.8
2017-Jun-20 17:30N 35°26' W 123°17'811.0
2017-Jun-20 16:44N 35°30' W 123°26'611.1
2017-Jun-20 16:14N 35°33' W 123°31'311.2
2017-Jun-20 16:00N 35°35' W 123°34'510.9
2017-Jun-20 15:30N 35°38' W 123°39'510.7
2017-Jun-20 15:00N 35°41' W 123°45'610.9
2017-Jun-20 14:28N 35°44' W 123°51'2410.8
2017-Jun-20 12:18N 35°57' W 124°15'2410.8
2017-Jun-20 10:02N 36°11' W 124°40'010.5
2017-Jun-20 10:00N 36°11' W 124°40'611.1
2017-Jun-20 09:28N 36°14' W 124°47'4811.1
2017-Jun-20 05:09N 36°40' W 125°36'211.0
2017-Jun-20 05:00N 36°41' W 125°38'610.9
2017-Jun-20 04:26N 36°45' W 125°44'1011.1
2017-Jun-20 03:29N 36°51' W 125°55'711.2
2017-Jun-20 02:52N 36°55' W 126°02'411.5
2017-Jun-20 02:29N 36°57' W 126°07'511.4
2017-Jun-20 02:00N 37°00' W 126°12'611.2
2017-Jun-20 01:29N 37°03' W 126°18'10311.0
2017-Jun-19 16:09N 37°59' W 128°08'211.1
2017-Jun-19 15:58N 37°60' W 128°10'3411.0
2017-Jun-19 12:54N 38°16' W 128°48'  
Track history (hours):
 
Tides and Currents Weather Stations Pressure Air Temp Water Temp Dewpoint Dewpoint Depression Visibility Wind Speed Wind Dir Waves Ship Positions

Bay Bridge

Last reported at 2017-Jun-26 19:00 UTC. Time now 2017-Jun-26 19:07 UTC.
Position N 37°16' W 122°40'.

Length 267 m; draft 10.7 m.

Type: Ship (hazmat cat A). MMSI: 354120000.

Date/timePositionNaut miles runAvg speedWind from/ knotsBaromVisibWave heightAir tempDewpointWater temp
2017-Jun-26 19:00N 37°16' W 122°40'2 3.4
2017-Jun-26 18:28N 37°17' W 122°41'0 0.3
2017-Jun-26 17:58N 37°17' W 122°41'0 0.4
2017-Jun-26 17:28N 37°17' W 122°42'0 0.4
2017-Jun-26 16:58N 37°17' W 122°42'0 0.5
2017-Jun-26 16:28N 37°16' W 122°42'0 1.0
2017-Jun-26 15:58N 37°16' W 122°41'2 4.4
2017-Jun-26 15:30N 37°16' W 122°39'2 3.9
2017-Jun-26 15:00N 37°15' W 122°37'0 0.3
2017-Jun-26 14:30N 37°15' W 122°37'0 0.3
2017-Jun-26 13:30N 37°15' W 122°37'0 0.4
2017-Jun-26 12:54N 37°16' W 122°37'0 0.4
2017-Jun-26 12:30N 37°16' W 122°37'0 0.6
2017-Jun-26 12:00N 37°16' W 122°37'0 0.3
2017-Jun-26 11:24N 37°16' W 122°37'0 0.4
2017-Jun-26 11:00N 37°16' W 122°37'0 0.4
2017-Jun-26 10:30N 37°16' W 122°37'0 0.3
2017-Jun-26 10:00N 37°16' W 122°37'0 0.2
2017-Jun-26 09:30N 37°17' W 122°38'0 0.3
2017-Jun-26 09:00N 37°17' W 122°38'0 0.3
2017-Jun-26 08:30N 37°16' W 122°38'0 0.5
2017-Jun-26 08:00N 37°16' W 122°38'0 0.8
2017-Jun-26 07:30N 37°16' W 122°39'0 0.4
2017-Jun-26 07:00N 37°16' W 122°39'0 0.4
2017-Jun-26 06:27N 37°16' W 122°39'0 0.3
2017-Jun-26 06:00N 37°16' W 122°39'0 0.1
2017-Jun-26 05:29N 37°16' W 122°39'0 0.1
2017-Jun-26 05:00N 37°16' W 122°39'0 0.1
2017-Jun-26 04:30N 37°16' W 122°39'0 0.1
2017-Jun-26 04:00N 37°16' W 122°39'0 0.2
2017-Jun-26 03:30N 37°16' W 122°39'0 0.3
2017-Jun-26 02:59N 37°16' W 122°39'0 0.3
2017-Jun-26 02:29N 37°16' W 122°39'0 0.6
2017-Jun-26 02:00N 37°16' W 122°40'0 0.4
2017-Jun-26 01:30N 37°16' W 122°40'0 0.4
2017-Jun-26 00:59N 37°16' W 122°40'0 0.3
2017-Jun-26 00:30N 37°16' W 122°40'0 0.1
2017-Jun-26 00:00N 37°16' W 122°40'1 1.2
2017-Jun-25 23:30N 37°16' W 122°40'4 8.3
2017-Jun-25 23:00N 37°11' W 122°40'611.2
2017-Jun-25 22:30N 37°06' W 122°39'611.2
2017-Jun-25 22:00N 37°01' W 122°36'611.3
2017-Jun-25 21:30N 36°56' W 122°34'611.3
2017-Jun-25 21:00N 36°50' W 122°31'611.1
2017-Jun-25 20:30N 36°45' W 122°29'611.1
2017-Jun-25 20:00N 36°40' W 122°26'611.0
2017-Jun-25 19:30N 36°35' W 122°23'510.8
2017-Jun-25 19:00N 36°30' W 122°21'510.8
2017-Jun-25 18:30N 36°25' W 122°18'510.5
2017-Jun-25 18:00N 36°20' W 122°16'611.1
2017-Jun-25 17:30N 36°15' W 122°12'510.5
2017-Jun-25 17:00N 36°11' W 122°09'510.6
2017-Jun-25 16:30N 36°06' W 122°06'510.8
2017-Jun-25 16:00N 36°01' W 122°03'510.6
2017-Jun-25 15:30N 35°57' W 121°59'510.5
2017-Jun-25 15:00N 35°52' W 121°56'1010.3
2017-Jun-25 14:00N 35°44' W 121°49'510.1
2017-Jun-25 13:30N 35°39' W 121°46'510.0
2017-Jun-25 13:00N 35°35' W 121°43'5 9.6
2017-Jun-25 12:30N 35°31' W 121°40'5 9.4
2017-Jun-25 12:00N 35°27' W 121°37'510.8
2017-Jun-25 11:30N 35°22' W 121°34'510.9
2017-Jun-25 11:00N 35°17' W 121°30'510.9
2017-Jun-25 10:30N 35°13' W 121°27'611.1
2017-Jun-25 10:00N 35°08' W 121°23'611.2
2017-Jun-25 09:30N 35°03' W 121°20'611.1
2017-Jun-25 09:00N 34°58' W 121°17'611.2
2017-Jun-25 08:30N 34°53' W 121°13'511.1
2017-Jun-25 08:00N 34°49' W 121°10'510.9
2017-Jun-25 07:30N 34°44' W 121°06'611.0
2017-Jun-25 07:00N 34°39' W 121°03'611.0
2017-Jun-25 06:30N 34°35' W 120°59'510.8
2017-Jun-25 06:00N 34°30' W 120°56'5 9.3
2017-Jun-25 05:27N 34°26' W 120°52'6 9.1
2017-Jun-25 04:44N 34°25' W 120°44'2 8.5
2017-Jun-25 04:30N 34°24' W 120°42'5 8.5
2017-Jun-25 03:58N 34°23' W 120°36'4 8.7
2017-Jun-25 03:30N 34°22' W 120°32'4 8.8
2017-Jun-25 03:00N 34°21' W 120°27'4 8.2
2017-Jun-25 02:30N 34°19' W 120°22'4 8.8
2017-Jun-25 02:00N 34°18' W 120°17'5 8.6
2017-Jun-25 01:26N 34°17' W 120°11'4 8.3
2017-Jun-25 00:58N 34°16' W 120°07'4 8.3
2017-Jun-25 00:27N 34°15' W 120°02'4 8.3
2017-Jun-24 23:58N 34°14' W 119°57'4 8.2
2017-Jun-24 23:30N 34°13' W 119°52'5 9.0
2017-Jun-24 23:00N 34°12' W 119°47'4 8.8
2017-Jun-24 22:30N 34°10' W 119°42'4 8.8
2017-Jun-24 22:00N 34°09' W 119°37'5 9.2
2017-Jun-24 21:30N 34°08' W 119°31'4 8.5
2017-Jun-24 21:00N 34°07' W 119°27'4 8.3
2017-Jun-24 20:30N 34°06' W 119°22'5 9.3
2017-Jun-24 20:00N 34°04' W 119°16'5 9.2
2017-Jun-24 19:30N 34°03' W 119°11'5 9.5
2017-Jun-24 19:00N 34°00' W 119°06'5 9.4
2017-Jun-24 18:30N 33°58' W 119°02'5 9.4
2017-Jun-24 18:00N 33°55' W 118°57'5 9.7
2017-Jun-24 17:30N 33°53' W 118°52'5 9.9
2017-Jun-24 17:00N 33°51' W 118°46'510.0
2017-Jun-24 16:30N 33°48' W 118°41'510.0
2017-Jun-24 16:00N 33°46' W 118°36'5 9.7
2017-Jun-24 15:30N 33°43' W 118°31'5 9.4
2017-Jun-24 15:00N 33°41' W 118°26'9 8.8
2017-Jun-24 14:00N 33°38' W 118°16'4 7.5
2017-Jun-24 13:30N 33°40' W 118°12'4 7.6
2017-Jun-24 13:00N 33°44' W 118°12'1 1.5
2017-Jun-24 12:30N 33°45' W 118°12'0 0.0
2017-Jun-24 11:58N 33°45' W 118°12'0 0.0
2017-Jun-24 11:28N 33°45' W 118°12'0 0.0
2017-Jun-24 10:58N 33°45' W 118°12'0 0.0
2017-Jun-24 10:25N 33°45' W 118°12'0 0.0
2017-Jun-24 09:58N 33°45' W 118°12'0 0.1
2017-Jun-24 09:28N 33°45' W 118°12'0 0.0
2017-Jun-24 08:58N 33°45' W 118°12'0 0.1
2017-Jun-24 08:25N 33°45' W 118°12'0 0.1
2017-Jun-24 07:58N 33°45' W 118°12'0 0.1
2017-Jun-24 07:25N 33°45' W 118°12'0 0.0
2017-Jun-24 06:58N 33°45' W 118°12'0 0.0
2017-Jun-24 06:28N 33°45' W 118°12'0 0.0
2017-Jun-24 05:58N 33°45' W 118°12'0 0.0
2017-Jun-24 05:28N 33°45' W 118°12'0 0.1
2017-Jun-24 04:58N 33°45' W 118°12'0 0.0
2017-Jun-24 04:28N 33°45' W 118°12'0 0.1
2017-Jun-24 03:58N 33°45' W 118°12'0 0.0
2017-Jun-24 03:22N 33°45' W 118°12'0 0.0
2017-Jun-24 02:52N 33°45' W 118°12'0 0.0
2017-Jun-24 02:28N 33°45' W 118°12'0 0.1
2017-Jun-24 01:49N 33°45' W 118°12'0 0.1
2017-Jun-24 01:28N 33°45' W 118°12'0 0.0
2017-Jun-24 00:46N 33°45' W 118°12'0 0.0
2017-Jun-24 00:22N 33°45' W 118°12'0 0.0
2017-Jun-23 23:58N 33°45' W 118°12'0 0.0
2017-Jun-23 23:28N 33°45' W 118°12'0 0.0
2017-Jun-23 22:58N 33°45' W 118°12'0 0.0
2017-Jun-23 22:28N 33°45' W 118°12'0 0.1
2017-Jun-23 21:58N 33°45' W 118°12'0 0.1
2017-Jun-23 21:28N 33°45' W 118°12'0 0.1
2017-Jun-23 20:52N 33°45' W 118°12'0 0.1
2017-Jun-23 20:28N 33°45' W 118°12'0 0.0
2017-Jun-23 19:58N 33°45' W 118°12'0 0.1
2017-Jun-23 19:25N 33°45' W 118°12'0 0.1
2017-Jun-23 18:40N 33°45' W 118°12'0 0.0
2017-Jun-23 18:22N 33°45' W 118°12'0 0.1
2017-Jun-23 17:58N 33°45' W 118°12'0 0.0
2017-Jun-23 17:28N 33°45' W 118°12'0 0.1
2017-Jun-23 16:58N 33°45' W 118°12'0 0.0
2017-Jun-23 16:28N 33°45' W 118°12'0 0.1
2017-Jun-23 15:58N 33°45' W 118°12'0 0.0
2017-Jun-23 15:28N 33°45' W 118°12'0 0.0
2017-Jun-23 14:58N 33°45' W 118°12'0 0.1
2017-Jun-23 13:58N 33°45' W 118°12'0 0.1
2017-Jun-23 13:28N 33°45' W 118°12'0 0.1
2017-Jun-23 12:58N 33°45' W 118°12'0 0.1
2017-Jun-23 12:28N 33°45' W 118°12'0 0.0
2017-Jun-23 11:58N 33°45' W 118°12'0 0.1
2017-Jun-23 11:28N 33°45' W 118°12'0 0.0
2017-Jun-23 10:55N 33°45' W 118°12'0 0.1
2017-Jun-23 10:16N 33°45' W 118°12'0 0.0
2017-Jun-23 09:58N 33°45' W 118°12'0 0.1
2017-Jun-23 09:28N 33°45' W 118°12'0 0.0
2017-Jun-23 08:58N 33°45' W 118°12'0 0.0
2017-Jun-23 08:28N 33°45' W 118°12'0 0.0
2017-Jun-23 07:58N 33°45' W 118°12'0 0.1
2017-Jun-23 07:28N 33°45' W 118°12'0 0.0
2017-Jun-23 06:58N 33°45' W 118°12'0 0.1
2017-Jun-23 06:22N 33°45' W 118°12'0 0.1
2017-Jun-23 05:52N 33°45' W 118°12'0 0.0
2017-Jun-23 05:28N 33°45' W 118°12'0 0.0
2017-Jun-23 04:58N 33°45' W 118°12'0 0.0
2017-Jun-23 04:28N 33°45' W 118°12'0 0.0
2017-Jun-23 03:58N 33°45' W 118°12'0 0.0
2017-Jun-23 03:28N 33°45' W 118°12'0 0.1
2017-Jun-23 02:58N 33°45' W 118°12'0 0.0
2017-Jun-23 02:28N 33°45' W 118°12'0 0.0
2017-Jun-23 01:58N 33°45' W 118°12'0 0.0
2017-Jun-23 01:28N 33°45' W 118°12'0 0.0
2017-Jun-23 00:58N 33°45' W 118°12'0 0.0
2017-Jun-23 00:28N 33°45' W 118°12'0 0.0
2017-Jun-22 23:58N 33°45' W 118°12'0 0.1
2017-Jun-22 23:28N 33°45' W 118°12'0 0.1
2017-Jun-22 22:58N 33°45' W 118°12'0 0.0
2017-Jun-22 22:30N 33°45' W 118°12'0 0.0
2017-Jun-22 22:01N 33°45' W 118°12'0 0.0
2017-Jun-22 21:28N 33°45' W 118°12'0 0.0
2017-Jun-22 20:58N 33°45' W 118°12'0 0.1
2017-Jun-22 20:25N 33°45' W 118°12'0 0.0
2017-Jun-22 19:52N 33°45' W 118°12'0 0.1
2017-Jun-22 19:28N 33°45' W 118°12'0 0.0
2017-Jun-22 18:58N 33°45' W 118°12'0 0.0
2017-Jun-22 18:31N 33°45' W 118°12'0 0.1
2017-Jun-22 17:54N 33°45' W 118°12'0 0.0
2017-Jun-22 17:28N 33°45' W 118°12'0 0.1
2017-Jun-22 16:58N 33°45' W 118°12'0 0.0
2017-Jun-22 16:28N 33°45' W 118°12'0 0.1
2017-Jun-22 15:58N 33°45' W 118°12'0 0.0
2017-Jun-22 15:28N 33°45' W 118°12'0 0.0
2017-Jun-22 14:58N 33°45' W 118°12'0 0.0
2017-Jun-22 13:58N 33°45' W 118°12'0 0.0
2017-Jun-22 13:30N 33°45' W 118°12'0 0.0
2017-Jun-22 12:58N 33°45' W 118°12'0 0.1
2017-Jun-22 12:28N 33°45' W 118°12'0 0.1
2017-Jun-22 11:58N 33°45' W 118°12'0 0.1
2017-Jun-22 11:31N 33°45' W 118°12'0 0.0
2017-Jun-22 10:58N 33°45' W 118°12'0 0.0
2017-Jun-22 10:30N 33°45' W 118°12'0 0.0
2017-Jun-22 09:58N 33°45' W 118°12'0 0.0
2017-Jun-22 09:28N 33°45' W 118°12'0 0.1
2017-Jun-22 09:01N 33°45' W 118°12'0 0.1
2017-Jun-22 08:30N 33°45' W 118°12'0 0.0
2017-Jun-22 08:00N 33°45' W 118°12'0 0.0
2017-Jun-22 07:31N 33°45' W 118°12'0 0.0
2017-Jun-22 06:58N 33°45' W 118°12'0 0.1
2017-Jun-22 06:30N 33°45' W 118°12'0 0.0
2017-Jun-22 06:00N 33°45' W 118°12'0 0.1
2017-Jun-22 05:31N 33°45' W 118°12'0 0.0
2017-Jun-22 05:00N 33°45' W 118°12'0 0.1
2017-Jun-22 04:31N 33°45' W 118°12'0 0.1
2017-Jun-22 04:00N 33°45' W 118°12'0 0.1
2017-Jun-22 03:30N 33°45' W 118°12'0 0.1
2017-Jun-22 03:01N 33°45' W 118°12'0 0.0
2017-Jun-22 02:31N 33°45' W 118°12'0 0.1
2017-Jun-22 02:00N 33°45' W 118°12'0 0.0
2017-Jun-22 01:30N 33°45' W 118°12'0 0.0
2017-Jun-22 01:00N 33°45' W 118°12'0 0.1
2017-Jun-22 00:28N 33°45' W 118°12'0 0.0
2017-Jun-22 00:01N 33°45' W 118°12'0 0.0
2017-Jun-21 23:30N 33°45' W 118°12'0 0.1
2017-Jun-21 23:00N 33°45' W 118°12'0 0.0
2017-Jun-21 22:30N 33°45' W 118°12'0 0.1
2017-Jun-21 22:00N 33°45' W 118°12'1 1.4
2017-Jun-21 21:30N 33°44' W 118°12'3 6.5
2017-Jun-21 21:00N 33°41' W 118°11'4 7.3
2017-Jun-21 20:30N 33°38' W 118°11'4 8.0
2017-Jun-21 20:00N 33°36' W 118°15'510.1
2017-Jun-21 19:30N 33°37' W 118°22'510.7
2017-Jun-21 19:00N 33°39' W 118°27'510.7
2017-Jun-21 18:30N 33°42' W 118°33'510.6
2017-Jun-21 18:00N 33°45' W 118°38'510.8
2017-Jun-21 17:31N 33°47' W 118°44'510.9
2017-Jun-21 17:01N 33°50' W 118°50'510.7
2017-Jun-21 16:31N 33°53' W 118°55'510.9
2017-Jun-21 16:00N 33°55' W 119°01'510.8
2017-Jun-21 15:30N 33°58' W 119°07'510.6
2017-Jun-21 15:00N 34°00' W 119°12'510.5
2017-Jun-21 14:31N 34°03' W 119°18'1110.5
2017-Jun-21 13:30N 34°06' W 119°30'510.4
2017-Jun-21 13:01N 34°07' W 119°36'5 9.9
2017-Jun-21 12:30N 34°08' W 119°42'510.0
2017-Jun-21 12:01N 34°10' W 119°48'510.0
2017-Jun-21 11:30N 34°11' W 119°54'5 9.9
2017-Jun-21 11:00N 34°12' W 119°60'510.0
2017-Jun-21 10:30N 34°14' W 120°05'5 9.9
2017-Jun-21 10:00N 34°15' W 120°11'5 9.9
2017-Jun-21 09:30N 34°16' W 120°17'5 9.9
2017-Jun-21 09:00N 34°18' W 120°23'5 9.8
2017-Jun-21 08:30N 34°19' W 120°28'5 9.9
2017-Jun-21 08:00N 34°20' W 120°34'5 9.9
2017-Jun-21 07:30N 34°22' W 120°40'5 9.9
2017-Jun-21 07:00N 34°23' W 120°46'510.1
2017-Jun-21 06:30N 34°24' W 120°52'4 8.7
2017-Jun-21 05:59N 34°24' W 120°57'4 7.8
2017-Jun-21 05:30N 34°24' W 121°02'4 7.7
2017-Jun-21 05:00N 34°23' W 121°06'1012.9
2017-Jun-21 04:13N 34°23' W 121°19'312.2
2017-Jun-21 03:58N 34°23' W 121°22'810.8
2017-Jun-21 03:15N 34°27' W 121°30'410.8
2017-Jun-21 02:53N 34°29' W 121°34'511.0
2017-Jun-21 02:28N 34°32' W 121°39'511.1
2017-Jun-21 02:00N 34°35' W 121°44'510.9
2017-Jun-21 01:30N 34°38' W 121°49'510.9
2017-Jun-21 01:00N 34°41' W 121°55'510.9
2017-Jun-21 00:30N 34°43' W 122°01'510.8
2017-Jun-21 00:00N 34°46' W 122°06'510.9
2017-Jun-20 23:30N 34°50' W 122°11'510.7
2017-Jun-20 23:00N 34°53' W 122°17'710.8
2017-Jun-20 22:19N 34°57' W 122°24'310.7
2017-Jun-20 22:00N 34°59' W 122°28'510.7
2017-Jun-20 21:30N 35°02' W 122°33'610.8
2017-Jun-20 20:59N 35°05' W 122°39'810.6
2017-Jun-20 20:16N 35°09' W 122°47'410.5
2017-Jun-20 19:55N 35°11' W 122°51'410.7
2017-Jun-20 19:30N 35°13' W 122°55'510.7
2017-Jun-20 19:00N 35°16' W 123°01'511.0
2017-Jun-20 18:30N 35°19' W 123°06'510.7
2017-Jun-20 18:00N 35°22' W 123°12'510.8
2017-Jun-20 17:30N 35°26' W 123°17'811.0
2017-Jun-20 16:44N 35°30' W 123°26'611.1
2017-Jun-20 16:14N 35°33' W 123°31'311.2
2017-Jun-20 16:00N 35°35' W 123°34'510.9
2017-Jun-20 15:30N 35°38' W 123°39'510.7
2017-Jun-20 15:00N 35°41' W 123°45'610.9
2017-Jun-20 14:28N 35°44' W 123°51'2410.8
2017-Jun-20 12:18N 35°57' W 124°15'2410.8
2017-Jun-20 10:02N 36°11' W 124°40'010.5
2017-Jun-20 10:00N 36°11' W 124°40'611.1
2017-Jun-20 09:28N 36°14' W 124°47'4811.1
2017-Jun-20 05:09N 36°40' W 125°36'211.0
2017-Jun-20 05:00N 36°41' W 125°38'610.9
2017-Jun-20 04:26N 36°45' W 125°44'1011.1
2017-Jun-20 03:29N 36°51' W 125°55'711.2
2017-Jun-20 02:52N 36°55' W 126°02'411.5
2017-Jun-20 02:29N 36°57' W 126°07'511.4
2017-Jun-20 02:00N 37°00' W 126°12'611.2
2017-Jun-20 01:29N 37°03' W 126°18'10311.0
2017-Jun-19 16:09N 37°59' W 128°08'211.1
2017-Jun-19 15:58N 37°60' W 128°10'3411.0
2017-Jun-19 12:54N 38°16' W 128°48'  

Dump ship's entire track history